ACA194 ZSPD-CYVR
Flight info
| Callsign | ACA194 |
|---|---|
| Flight time | N/A |
| Altitude | 39000 |
| Route | LAM94D/34L LAMEN A593 SADLI Y590 BEDAR Y591 FUE Y23 KASTE Y81 TASOT Y57 POROT Y809 IDLAN Y812 ADNAP OTR5 KALNA DCT KALIG/N0490F350 DCT CUTEE DCT CARTO DCT 50N180E 51N170W 52N160W/N0486F370 53N150W 53N140W DCT MANJO DCT POWOL WHSLR7 |
| Aircraft | B77W/H-SDE1E2E3FGHIJ2J3J4J5M1RWXY/LB1D1 |
Departure
| Time | N/A |
|---|---|
| Airport | Shanghai Pudong International Airport (ZSPD) |
Arrival
| Time | 2026-05-04 01:21 |
|---|---|
| Airport | Vancouver International Airport (CYVR) |
| Time | Latitude | Longitude | Altitude | Speed | Heading |
|---|---|---|---|---|---|
| 2026-05-03 20:15 | 49.25123 | 172.55489 | 38513 ft | 532 kts | 78° |
| 2026-05-03 20:15 | 49.26612 | 172.66597 | 38513 ft | 532 kts | 78° |
| 2026-05-03 20:16 | 49.28089 | 172.77701 | 38522 ft | 532 kts | 78° |
| 2026-05-03 20:16 | 49.29553 | 172.88794 | 38523 ft | 532 kts | 79° |
| 2026-05-03 20:17 | 49.31000 | 172.99839 | 38521 ft | 532 kts | 79° |
| 2026-05-03 20:17 | 49.32413 | 173.10714 | 38538 ft | 531 kts | 79° |
| 2026-05-03 20:18 | 49.33845 | 173.21819 | 38531 ft | 530 kts | 79° |
| 2026-05-03 20:18 | 49.35264 | 173.32916 | 38532 ft | 529 kts | 79° |
| 2026-05-03 20:19 | 49.36669 | 173.43992 | 38545 ft | 528 kts | 79° |
| 2026-05-03 20:19 | 49.38061 | 173.55055 | 38537 ft | 527 kts | 79° |
| 2026-05-03 20:20 | 49.39440 | 173.66111 | 38542 ft | 527 kts | 79° |
| 2026-05-03 20:20 | 49.40799 | 173.77089 | 38547 ft | 526 kts | 79° |
| 2026-05-03 20:21 | 49.42155 | 173.88128 | 38552 ft | 526 kts | 80° |
| 2026-05-03 20:21 | 49.43499 | 173.99169 | 38558 ft | 526 kts | 80° |
| 2026-05-03 20:22 | 49.44803 | 174.09969 | 38560 ft | 526 kts | 80° |
| 2026-05-03 20:22 | 49.46130 | 174.21055 | 38549 ft | 527 kts | 80° |
| 2026-05-03 20:23 | 49.47445 | 174.32133 | 38566 ft | 528 kts | 81° |
| 2026-05-03 20:23 | 49.48755 | 174.43263 | 38568 ft | 529 kts | 80° |
| 2026-05-03 20:24 | 49.50046 | 174.54327 | 38564 ft | 530 kts | 81° |
| 2026-05-03 20:24 | 49.51338 | 174.65499 | 38568 ft | 530 kts | 81° |
| 2026-05-03 20:25 | 49.52622 | 174.76696 | 38575 ft | 531 kts | 81° |
| 2026-05-03 20:25 | 49.53893 | 174.87891 | 38583 ft | 531 kts | 81° |
| 2026-05-03 20:26 | 49.55158 | 174.99122 | 38588 ft | 532 kts | 81° |
| 2026-05-03 20:26 | 49.56385 | 175.10119 | 38582 ft | 533 kts | 81° |
| 2026-05-03 20:27 | 49.57625 | 175.21334 | 38598 ft | 534 kts | 82° |
| 2026-05-03 20:27 | 49.58863 | 175.32641 | 38597 ft | 534 kts | 81° |
| 2026-05-03 20:28 | 49.60085 | 175.43908 | 38606 ft | 532 kts | 82° |
| 2026-05-03 20:28 | 49.61286 | 175.55076 | 38611 ft | 530 kts | 82° |
| 2026-05-03 20:29 | 49.62481 | 175.66309 | 38638 ft | 532 kts | 83° |
| 2026-05-03 20:29 | 49.63672 | 175.77609 | 38632 ft | 534 kts | 83° |
| 2026-05-03 20:30 | 49.64852 | 175.88921 | 38635 ft | 534 kts | 83° |
| 2026-05-03 20:30 | 49.66015 | 176.00164 | 38642 ft | 533 kts | 82° |
| 2026-05-03 20:31 | 49.67160 | 176.11342 | 38651 ft | 535 kts | 82° |
| 2026-05-03 20:31 | 49.68312 | 176.22705 | 38663 ft | 536 kts | 84° |
| 2026-05-03 20:32 | 49.69444 | 176.33983 | 38666 ft | 531 kts | 83° |
| 2026-05-03 20:32 | 49.70561 | 176.45206 | 38667 ft | 526 kts | 82° |
| 2026-05-03 20:33 | 49.71659 | 176.56381 | 38681 ft | 528 kts | 83° |
| 2026-05-03 20:33 | 49.72754 | 176.67647 | 38699 ft | 531 kts | 84° |
| 2026-05-03 20:34 | 49.73839 | 176.78938 | 38710 ft | 532 kts | 83° |
| 2026-05-03 20:34 | 49.74918 | 176.90243 | 38703 ft | 530 kts | 84° |
| 2026-05-03 20:35 | 49.75960 | 177.01295 | 38722 ft | 530 kts | 83° |
| 2026-05-03 20:35 | 49.77015 | 177.12594 | 38737 ft | 530 kts | 83° |
| 2026-05-03 20:36 | 49.78056 | 177.23879 | 38744 ft | 530 kts | 83° |
| 2026-05-03 20:36 | 49.79080 | 177.35108 | 38745 ft | 529 kts | 83° |
| 2026-05-03 20:37 | 49.80099 | 177.46400 | 38771 ft | 530 kts | 83° |
| 2026-05-03 20:37 | 49.81108 | 177.57715 | 38789 ft | 531 kts | 83° |
| 2026-05-03 20:38 | 49.82105 | 177.69036 | 38781 ft | 531 kts | 85° |
| 2026-05-03 20:38 | 49.83095 | 177.80364 | 38768 ft | 531 kts | 84° |
| 2026-05-03 20:39 | 49.84073 | 177.91709 | 38807 ft | 530 kts | 85° |
| 2026-05-03 20:39 | 49.85016 | 178.02777 | 38813 ft | 529 kts | 83° |
| 2026-05-03 20:40 | 49.85968 | 178.14087 | 38817 ft | 530 kts | 84° |
| 2026-05-03 20:40 | 49.86909 | 178.25408 | 38829 ft | 529 kts | 86° |
| 2026-05-03 20:41 | 49.87831 | 178.36650 | 38842 ft | 529 kts | 86° |
| 2026-05-03 20:41 | 49.88755 | 178.48006 | 38855 ft | 530 kts | 84° |
| 2026-05-03 20:42 | 49.89668 | 178.59377 | 38868 ft | 532 kts | 84° |
| 2026-05-03 20:42 | 49.90566 | 178.70704 | 38852 ft | 528 kts | 85° |
| 2026-05-03 20:43 | 49.91450 | 178.81994 | 38867 ft | 525 kts | 86° |
| 2026-05-03 20:43 | 49.92318 | 178.93252 | 38895 ft | 526 kts | 84° |
| 2026-05-03 20:44 | 49.93161 | 179.04345 | 38897 ft | 530 kts | 86° |
| 2026-05-03 20:44 | 49.94008 | 179.15593 | 38895 ft | 527 kts | 85° |
| 2026-05-03 20:45 | 49.94849 | 179.26921 | 38902 ft | 527 kts | 86° |
| 2026-05-03 20:45 | 49.95675 | 179.38227 | 38917 ft | 527 kts | 86° |
| 2026-05-03 20:46 | 49.96493 | 179.49546 | 38938 ft | 527 kts | 85° |
| 2026-05-03 20:46 | 49.97298 | 179.60853 | 38939 ft | 525 kts | 87° |
| 2026-05-03 20:47 | 49.98088 | 179.72066 | 38946 ft | 520 kts | 86° |
| 2026-05-03 20:47 | 49.98856 | 179.83177 | 38965 ft | 519 kts | 85° |
| 2026-05-03 20:48 | 49.99620 | 179.94354 | 38975 ft | 520 kts | 87° |
| 2026-05-03 20:48 | 50.00625 | -179.95019 | 38973 ft | 524 kts | 80° |
| 2026-05-03 20:49 | 50.02233 | -179.83965 | 38976 ft | 524 kts | 78° |
| 2026-05-03 20:49 | 50.03883 | -179.72930 | 38977 ft | 523 kts | 79° |
| 2026-05-03 20:50 | 50.05485 | -179.61912 | 38988 ft | 522 kts | 79° |
| 2026-05-03 20:50 | 50.07048 | -179.50893 | 38999 ft | 521 kts | 79° |
| 2026-05-03 20:51 | 50.08589 | -179.39905 | 39004 ft | 522 kts | 80° |
| 2026-05-03 20:51 | 50.10129 | -179.28850 | 39008 ft | 522 kts | 80° |
| 2026-05-03 20:52 | 50.11660 | -179.17796 | 39013 ft | 522 kts | 79° |
| 2026-05-03 20:52 | 50.13179 | -179.06745 | 39015 ft | 521 kts | 79° |
| 2026-05-03 20:53 | 50.14653 | -178.95943 | 39025 ft | 520 kts | 79° |
| 2026-05-03 20:53 | 50.16149 | -178.84894 | 39039 ft | 521 kts | 80° |
| 2026-05-03 20:54 | 50.17635 | -178.73831 | 39045 ft | 521 kts | 79° |
| 2026-05-03 20:54 | 50.19844 | -178.57231 | 39049 ft | 520 kts | 79° |
| 2026-05-03 20:55 | 50.21303 | -178.46171 | 39057 ft | 519 kts | 80° |
| 2026-05-03 20:55 | 50.22737 | -178.35209 | 39059 ft | 518 kts | 80° |
| 2026-05-03 20:56 | 50.24169 | -178.24169 | 39072 ft | 518 kts | 80° |
| 2026-05-03 20:56 | 50.25590 | -178.13130 | 39075 ft | 518 kts | 80° |
| 2026-05-03 20:57 | 50.27002 | -178.02071 | 39083 ft | 518 kts | 80° |
| 2026-05-03 20:57 | 50.28374 | -177.91250 | 39092 ft | 519 kts | 80° |
| 2026-05-03 20:58 | 50.29757 | -177.80244 | 39089 ft | 519 kts | 80° |
| 2026-05-03 20:58 | 50.31138 | -177.69162 | 39095 ft | 519 kts | 80° |
| 2026-05-03 20:59 | 50.32507 | -177.58089 | 39104 ft | 518 kts | 80° |
| 2026-05-03 20:59 | 50.33867 | -177.46997 | 39107 ft | 518 kts | 80° |
| 2026-05-03 21:00 | 50.34771 | -177.39581 | 39114 ft | 518 kts | 80° |
| 2026-05-03 21:00 | 50.36330 | -177.26679 | 39118 ft | 518 kts | 80° |
| 2026-05-03 21:01 | 50.37658 | -177.15584 | 39116 ft | 518 kts | 80° |
| 2026-05-03 21:01 | 50.38977 | -177.04473 | 39132 ft | 518 kts | 80° |
| 2026-05-03 21:02 | 50.40256 | -176.93611 | 39125 ft | 518 kts | 80° |
| 2026-05-03 21:02 | 50.41555 | -176.82481 | 39129 ft | 518 kts | 80° |
| 2026-05-03 21:03 | 50.42839 | -176.71373 | 39127 ft | 517 kts | 80° |
| 2026-05-03 21:03 | 50.44111 | -176.60280 | 39135 ft | 516 kts | 80° |
| 2026-05-03 21:04 | 50.45372 | -176.49191 | 39139 ft | 516 kts | 80° |
| 2026-05-03 21:04 | 50.46613 | -176.38179 | 39140 ft | 515 kts | 80° |
| 2026-05-03 21:05 | 50.47848 | -176.27114 | 39138 ft | 514 kts | 80° |
| 2026-05-03 21:05 | 50.49071 | -176.16066 | 39147 ft | 513 kts | 80° |
| 2026-05-03 21:06 | 50.50283 | -176.05009 | 39151 ft | 513 kts | 80° |
| 2026-05-03 21:06 | 50.51455 | -175.94224 | 39152 ft | 512 kts | 80° |
| 2026-05-03 21:07 | 50.52642 | -175.83201 | 39157 ft | 512 kts | 80° |
| 2026-05-03 21:07 | 50.53821 | -175.72147 | 39160 ft | 511 kts | 80° |
| 2026-05-03 21:08 | 50.54984 | -175.61138 | 39157 ft | 511 kts | 80° |
| 2026-05-03 21:08 | 50.56137 | -175.50122 | 39165 ft | 510 kts | 80° |
| 2026-05-03 21:09 | 50.57272 | -175.39173 | 39164 ft | 509 kts | 80° |
| 2026-05-03 21:09 | 50.58399 | -175.28202 | 39158 ft | 507 kts | 80° |
| 2026-05-03 21:10 | 50.59514 | -175.17231 | 39166 ft | 506 kts | 80° |
| 2026-05-03 21:10 | 50.60615 | -175.06308 | 39165 ft | 505 kts | 81° |
| 2026-05-03 21:11 | 50.61678 | -174.95646 | 39165 ft | 505 kts | 81° |
| 2026-05-03 21:11 | 50.62758 | -174.84717 | 39165 ft | 505 kts | 81° |
| 2026-05-03 21:12 | 50.63827 | -174.73781 | 39171 ft | 505 kts | 81° |
| 2026-05-03 21:12 | 50.64886 | -174.62845 | 39172 ft | 505 kts | 81° |
| 2026-05-03 21:13 | 50.65928 | -174.51972 | 39172 ft | 506 kts | 81° |
| 2026-05-03 21:13 | 50.66971 | -174.40987 | 39172 ft | 506 kts | 81° |
| 2026-05-03 21:14 | 50.68003 | -174.29987 | 39176 ft | 507 kts | 81° |
| 2026-05-03 21:14 | 50.69027 | -174.18972 | 39173 ft | 507 kts | 81° |
| 2026-05-03 21:15 | 50.70032 | -174.08030 | 39172 ft | 507 kts | 81° |
| 2026-05-03 21:15 | 50.71011 | -173.97276 | 39174 ft | 507 kts | 81° |
| 2026-05-03 21:16 | 50.72003 | -173.86251 | 39190 ft | 507 kts | 81° |
| 2026-05-03 21:16 | 50.72984 | -173.75225 | 39180 ft | 507 kts | 81° |
| 2026-05-03 21:17 | 50.73789 | -173.66088 | 39176 ft | 506 kts | 81° |
| 2026-05-03 21:17 | 50.74909 | -173.53229 | 39175 ft | 505 kts | 81° |
| 2026-05-03 21:18 | 50.75855 | -173.42242 | 39179 ft | 504 kts | 81° |
| 2026-05-03 21:18 | 50.76790 | -173.31262 | 39177 ft | 505 kts | 81° |
| 2026-05-03 21:19 | 50.77708 | -173.20344 | 39176 ft | 505 kts | 81° |
| 2026-05-03 21:19 | 50.78625 | -173.09320 | 39172 ft | 506 kts | 81° |
| 2026-05-03 21:20 | 50.79509 | -172.98564 | 39173 ft | 506 kts | 81° |
| 2026-05-03 21:20 | 50.80405 | -172.87535 | 39173 ft | 507 kts | 81° |
| 2026-05-03 21:21 | 50.81295 | -172.76447 | 39173 ft | 508 kts | 81° |
| 2026-05-03 21:21 | 50.82174 | -172.65365 | 39172 ft | 508 kts | 81° |
| 2026-05-03 21:22 | 50.83044 | -172.54257 | 39171 ft | 509 kts | 81° |
| 2026-05-03 21:22 | 50.83898 | -172.43203 | 39173 ft | 509 kts | 81° |
| 2026-05-03 21:23 | 50.84747 | -172.32091 | 39168 ft | 509 kts | 81° |
| 2026-05-03 21:23 | 50.85587 | -172.20939 | 39179 ft | 509 kts | 81° |
| 2026-05-03 21:24 | 50.86415 | -172.09816 | 39168 ft | 509 kts | 81° |
| 2026-05-03 21:24 | 50.87215 | -171.98922 | 39168 ft | 508 kts | 81° |
| 2026-05-03 21:25 | 50.88022 | -171.87777 | 39162 ft | 508 kts | 81° |
| 2026-05-03 21:25 | 50.88818 | -171.76647 | 39164 ft | 508 kts | 81° |
| 2026-05-03 21:26 | 50.89597 | -171.65601 | 39165 ft | 508 kts | 82° |
| 2026-05-03 21:26 | 50.90376 | -171.54399 | 39163 ft | 508 kts | 82° |
| 2026-05-03 21:27 | 50.91135 | -171.43330 | 39167 ft | 509 kts | 82° |
| 2026-05-03 21:27 | 50.91890 | -171.32172 | 39161 ft | 509 kts | 82° |
| 2026-05-03 21:28 | 50.92635 | -171.20990 | 39156 ft | 509 kts | 82° |
| 2026-05-03 21:28 | 50.93368 | -171.09814 | 39156 ft | 509 kts | 82° |
| 2026-05-03 21:29 | 50.94071 | -170.98945 | 39164 ft | 510 kts | 82° |
| 2026-05-03 21:29 | 50.94785 | -170.87752 | 39152 ft | 510 kts | 82° |
| 2026-05-03 21:30 | 50.95487 | -170.76558 | 39147 ft | 510 kts | 82° |
| 2026-05-03 21:30 | 50.96179 | -170.65352 | 39151 ft | 510 kts | 82° |
| 2026-05-03 21:31 | 50.96861 | -170.54143 | 39160 ft | 510 kts | 82° |
| 2026-05-03 21:31 | 50.97531 | -170.42931 | 39157 ft | 510 kts | 82° |
| 2026-05-03 21:32 | 50.98188 | -170.31775 | 39141 ft | 510 kts | 82° |
| 2026-05-03 21:32 | 50.98837 | -170.20565 | 39136 ft | 510 kts | 82° |
| 2026-05-03 21:33 | 50.99477 | -170.09350 | 39142 ft | 510 kts | 82° |
| 2026-05-03 21:33 | 51.00199 | -169.98418 | 39143 ft | 508 kts | 78° |
| 2026-05-03 21:34 | 51.01703 | -169.87474 | 39141 ft | 506 kts | 74° |
| 2026-05-03 21:34 | 51.03333 | -169.76585 | 39140 ft | 506 kts | 74° |
| 2026-05-03 21:35 | 51.04931 | -169.65697 | 39134 ft | 506 kts | 75° |
| 2026-05-03 21:35 | 51.06489 | -169.54774 | 39138 ft | 506 kts | 75° |
| 2026-05-03 21:36 | 51.08017 | -169.43901 | 39139 ft | 506 kts | 75° |
| 2026-05-03 21:36 | 51.09543 | -169.32958 | 39133 ft | 506 kts | 75° |
| 2026-05-03 21:37 | 51.11059 | -169.22015 | 39135 ft | 506 kts | 75° |
| 2026-05-03 21:37 | 51.12567 | -169.11060 | 39118 ft | 506 kts | 75° |
| 2026-05-03 21:38 | 51.14062 | -169.00123 | 39136 ft | 505 kts | 75° |
| 2026-05-03 21:38 | 51.15504 | -168.89495 | 39122 ft | 505 kts | 75° |
| 2026-05-03 21:39 | 51.16976 | -168.78563 | 39123 ft | 504 kts | 76° |
| 2026-05-03 21:39 | 51.18439 | -168.67613 | 39117 ft | 504 kts | 76° |
| 2026-05-03 21:40 | 51.19889 | -168.56684 | 39118 ft | 504 kts | 76° |
| 2026-05-03 21:40 | 51.21331 | -168.45725 | 39120 ft | 504 kts | 76° |
| 2026-05-03 21:41 | 51.22761 | -168.34773 | 39114 ft | 505 kts | 76° |
| 2026-05-03 21:41 | 51.24184 | -168.23796 | 39114 ft | 505 kts | 76° |
| 2026-05-03 21:42 | 51.25589 | -168.12861 | 39111 ft | 505 kts | 76° |
| 2026-05-03 21:42 | 51.26991 | -168.01871 | 39109 ft | 506 kts | 77° |
| 2026-05-03 21:43 | 51.28356 | -167.91083 | 39107 ft | 506 kts | 77° |
| 2026-05-03 21:43 | 51.29743 | -167.80037 | 39104 ft | 506 kts | 77° |
| 2026-05-03 21:44 | 51.31117 | -167.68998 | 39097 ft | 506 kts | 77° |
| 2026-05-03 21:44 | 51.32480 | -167.57958 | 39098 ft | 506 kts | 77° |
| 2026-05-03 21:45 | 51.33827 | -167.46968 | 39098 ft | 506 kts | 77° |
| 2026-05-03 21:45 | 51.35168 | -167.35924 | 39095 ft | 506 kts | 77° |
| 2026-05-03 21:46 | 51.36504 | -167.24842 | 39092 ft | 506 kts | 78° |
| 2026-05-03 21:46 | 51.37604 | -167.15634 | 39089 ft | 506 kts | 78° |
| 2026-05-03 21:47 | 51.38917 | -167.04565 | 39091 ft | 506 kts | 78° |
| 2026-05-03 21:47 | 51.40193 | -166.93717 | 39090 ft | 506 kts | 78° |
| 2026-05-03 21:48 | 51.41487 | -166.82621 | 39084 ft | 506 kts | 78° |
| 2026-05-03 21:48 | 51.42770 | -166.71527 | 39084 ft | 507 kts | 78° |
| 2026-05-03 21:49 | 51.44038 | -166.60461 | 39083 ft | 507 kts | 78° |
| 2026-05-03 21:49 | 51.45301 | -166.49343 | 39083 ft | 507 kts | 78° |
| 2026-05-03 21:50 | 51.46552 | -166.38228 | 39078 ft | 507 kts | 79° |
| 2026-05-03 21:50 | 51.47795 | -166.27091 | 39095 ft | 507 kts | 79° |
| 2026-05-03 21:51 | 51.49030 | -166.15926 | 39074 ft | 507 kts | 79° |
| 2026-05-03 21:51 | 51.50251 | -166.04774 | 39073 ft | 507 kts | 79° |
| 2026-05-03 21:52 | 51.51439 | -165.93837 | 39071 ft | 507 kts | 79° |
| 2026-05-03 21:52 | 51.52639 | -165.82675 | 39073 ft | 507 kts | 80° |
| 2026-05-03 21:53 | 51.53829 | -165.71509 | 39066 ft | 507 kts | 80° |
| 2026-05-03 21:53 | 51.55010 | -165.60320 | 39065 ft | 507 kts | 80° |
| 2026-05-03 21:54 | 51.56178 | -165.49152 | 39065 ft | 507 kts | 80° |
| 2026-05-03 21:54 | 51.57330 | -165.38024 | 39060 ft | 507 kts | 81° |
| 2026-05-03 21:55 | 51.58478 | -165.26835 | 39062 ft | 507 kts | 81° |
| 2026-05-03 21:55 | 51.59614 | -165.15648 | 39064 ft | 506 kts | 81° |
| 2026-05-03 21:56 | 51.60740 | -165.04446 | 39058 ft | 506 kts | 81° |
| 2026-05-03 21:56 | 51.61830 | -164.93495 | 39060 ft | 506 kts | 81° |
| 2026-05-03 21:57 | 51.62932 | -164.82322 | 39060 ft | 506 kts | 81° |
| 2026-05-03 21:57 | 51.64014 | -164.71228 | 39058 ft | 506 kts | 81° |
| 2026-05-03 21:58 | 51.65096 | -164.60026 | 39057 ft | 506 kts | 81° |
| 2026-05-03 21:58 | 51.66166 | -164.48832 | 39054 ft | 506 kts | 82° |
| 2026-05-03 21:59 | 51.67227 | -164.37617 | 39055 ft | 506 kts | 82° |
| 2026-05-03 21:59 | 51.68276 | -164.26419 | 39048 ft | 505 kts | 82° |
| 2026-05-03 22:00 | 51.69315 | -164.15198 | 39053 ft | 505 kts | 83° |
| 2026-05-03 22:00 | 51.70334 | -164.04071 | 39048 ft | 504 kts | 83° |
| 2026-05-03 22:01 | 51.71325 | -163.93132 | 39046 ft | 503 kts | 83° |
| 2026-05-03 22:01 | 51.72329 | -163.81942 | 39041 ft | 503 kts | 83° |
| 2026-05-03 22:02 | 51.73318 | -163.70786 | 39040 ft | 502 kts | 83° |
| 2026-05-03 22:02 | 51.74296 | -163.59625 | 39035 ft | 502 kts | 83° |
| 2026-05-03 22:03 | 51.75259 | -163.48516 | 39032 ft | 502 kts | 83° |
| 2026-05-03 22:03 | 51.76215 | -163.37365 | 39033 ft | 502 kts | 83° |
| 2026-05-03 22:04 | 51.77163 | -163.26185 | 39023 ft | 502 kts | 84° |
| 2026-05-03 22:04 | 51.78099 | -163.15006 | 39028 ft | 502 kts | 84° |
| 2026-05-03 22:05 | 51.79026 | -163.03804 | 39022 ft | 503 kts | 84° |
| 2026-05-03 22:05 | 51.79919 | -162.92892 | 39023 ft | 504 kts | 84° |
| 2026-05-03 22:06 | 51.80825 | -162.81672 | 39020 ft | 504 kts | 84° |
| 2026-05-03 22:06 | 51.81725 | -162.70415 | 39008 ft | 504 kts | 84° |
| 2026-05-03 22:07 | 51.82610 | -162.59186 | 39009 ft | 503 kts | 85° |
| 2026-05-03 22:07 | 51.83483 | -162.47983 | 39012 ft | 501 kts | 85° |
| 2026-05-03 22:08 | 51.84342 | -162.36802 | 39004 ft | 500 kts | 85° |
| 2026-05-03 22:08 | 51.85190 | -162.25632 | 39004 ft | 500 kts | 85° |
| 2026-05-03 22:09 | 51.86020 | -162.14566 | 38991 ft | 499 kts | 85° |
| 2026-05-03 22:10 | 51.87236 | -161.98075 | 38999 ft | 498 kts | 86° |
| 2026-05-03 22:10 | 51.88045 | -161.86927 | 38996 ft | 499 kts | 86° |
| 2026-05-03 22:11 | 51.88842 | -161.75784 | 38994 ft | 499 kts | 86° |
| 2026-05-03 22:11 | 51.89630 | -161.64618 | 38979 ft | 499 kts | 86° |
| 2026-05-03 22:12 | 51.90406 | -161.53479 | 38971 ft | 498 kts | 86° |
| 2026-05-03 22:12 | 51.91172 | -161.42334 | 38975 ft | 498 kts | 87° |
| 2026-05-03 22:13 | 51.91927 | -161.31179 | 38975 ft | 498 kts | 87° |
| 2026-05-03 22:13 | 51.92670 | -161.20033 | 38969 ft | 497 kts | 87° |
| 2026-05-03 22:14 | 51.93399 | -161.08961 | 38945 ft | 497 kts | 88° |
| 2026-05-03 22:14 | 51.94104 | -160.98079 | 38959 ft | 496 kts | 88° |
| 2026-05-03 22:15 | 51.94816 | -160.86933 | 38953 ft | 496 kts | 88° |
| 2026-05-03 22:15 | 51.95515 | -160.75819 | 38960 ft | 495 kts | 88° |
| 2026-05-03 22:16 | 51.96203 | -160.64705 | 38947 ft | 495 kts | 88° |
| 2026-05-03 22:16 | 51.96882 | -160.53583 | 38937 ft | 495 kts | 89° |
| 2026-05-03 22:17 | 51.97548 | -160.42484 | 38936 ft | 494 kts | 89° |
| 2026-05-03 22:17 | 51.98203 | -160.31396 | 38940 ft | 493 kts | 89° |
| 2026-05-03 22:18 | 51.98843 | -160.20376 | 38931 ft | 493 kts | 89° |
| 2026-05-03 22:18 | 51.99477 | -160.09307 | 38932 ft | 492 kts | 89° |
| 2026-05-03 22:19 | 52.00191 | -159.98507 | 38919 ft | 495 kts | 85° |
| 2026-05-03 22:19 | 52.01688 | -159.87557 | 38917 ft | 498 kts | 82° |
| 2026-05-03 22:20 | 52.03323 | -159.76603 | 38921 ft | 499 kts | 82° |
| 2026-05-03 22:20 | 52.04929 | -159.65640 | 38921 ft | 500 kts | 82° |
| 2026-05-03 22:21 | 52.06500 | -159.54614 | 38912 ft | 501 kts | 82° |
| 2026-05-03 22:21 | 52.08053 | -159.43542 | 38912 ft | 502 kts | 83° |
| 2026-05-03 22:22 | 52.09586 | -159.32531 | 38905 ft | 502 kts | 83° |
| 2026-05-03 22:22 | 52.11121 | -159.21438 | 38899 ft | 502 kts | 83° |
| 2026-05-03 22:23 | 52.12644 | -159.10357 | 38894 ft | 501 kts | 83° |
| 2026-05-03 22:23 | 52.14123 | -158.99511 | 38894 ft | 501 kts | 83° |
| 2026-05-03 22:24 | 52.15621 | -158.88445 | 38890 ft | 500 kts | 83° |
| 2026-05-03 22:24 | 52.17110 | -158.77367 | 38887 ft | 500 kts | 84° |
| 2026-05-03 22:25 | 52.18579 | -158.66338 | 38888 ft | 501 kts | 84° |
| 2026-05-03 22:25 | 52.20050 | -158.55212 | 38875 ft | 501 kts | 84° |
| 2026-05-03 22:26 | 52.21508 | -158.44100 | 38871 ft | 502 kts | 84° |
| 2026-05-03 22:26 | 52.22960 | -158.32953 | 38867 ft | 502 kts | 84° |
| 2026-05-03 22:27 | 52.24402 | -158.21807 | 38851 ft | 501 kts | 85° |
| 2026-05-03 22:27 | 52.25828 | -158.10687 | 38845 ft | 499 kts | 86° |
| 2026-05-03 22:28 | 52.27215 | -157.99782 | 38849 ft | 498 kts | 86° |
| 2026-05-03 22:28 | 52.28599 | -157.88809 | 38838 ft | 497 kts | 86° |
| 2026-05-03 22:29 | 52.29973 | -157.77829 | 38846 ft | 496 kts | 86° |
| 2026-05-03 22:29 | 52.31344 | -157.66784 | 38803 ft | 495 kts | 86° |
| 2026-05-03 22:30 | 52.32699 | -157.55784 | 38833 ft | 493 kts | 86° |
| 2026-05-03 22:30 | 52.34043 | -157.44787 | 38837 ft | 492 kts | 87° |
| 2026-05-03 22:31 | 52.35372 | -157.33811 | 38831 ft | 491 kts | 87° |
| 2026-05-03 22:31 | 52.36688 | -157.22853 | 38828 ft | 491 kts | 87° |
| 2026-05-03 22:32 | 52.37775 | -157.13729 | 38829 ft | 491 kts | 87° |
| 2026-05-03 22:32 | 52.39075 | -157.02738 | 38817 ft | 491 kts | 88° |
| 2026-05-03 22:33 | 52.40333 | -156.92013 | 38833 ft | 491 kts | 88° |
| 2026-05-03 22:33 | 52.41613 | -156.81011 | 38819 ft | 493 kts | 88° |
| 2026-05-03 22:34 | 52.42885 | -156.69976 | 38805 ft | 493 kts | 88° |
| 2026-05-03 22:34 | 52.44150 | -156.58924 | 38816 ft | 493 kts | 88° |
| 2026-05-03 22:35 | 52.45395 | -156.47944 | 38784 ft | 493 kts | 88° |
| 2026-05-03 22:35 | 52.46639 | -156.36862 | 38827 ft | 495 kts | 89° |
| 2026-05-03 22:36 | 52.47877 | -156.25738 | 38818 ft | 497 kts | 89° |
| 2026-05-03 22:36 | 52.49110 | -156.14574 | 38825 ft | 497 kts | 89° |
| 2026-05-03 22:37 | 52.50333 | -156.03395 | 38831 ft | 497 kts | 89° |
| 2026-05-03 22:37 | 52.51518 | -155.92469 | 38836 ft | 497 kts | 89° |
| 2026-05-03 22:38 | 52.52719 | -155.81288 | 38800 ft | 497 kts | 90° |
| 2026-05-03 22:38 | 52.53903 | -155.70151 | 38840 ft | 499 kts | 90° |
| 2026-05-03 22:39 | 52.55086 | -155.58905 | 38844 ft | 501 kts | 90° |
| 2026-05-03 22:39 | 52.56264 | -155.47621 | 38846 ft | 502 kts | 90° |
| 2026-05-03 22:40 | 52.57436 | -155.36296 | 38859 ft | 502 kts | 90° |
| 2026-05-03 22:40 | 52.58594 | -155.24994 | 38821 ft | 502 kts | 91° |
| 2026-05-03 22:41 | 52.59743 | -155.13681 | 38852 ft | 500 kts | 91° |
| 2026-05-03 22:41 | 52.60875 | -155.02392 | 38861 ft | 500 kts | 91° |
| 2026-05-03 22:42 | 52.61973 | -154.91329 | 38867 ft | 500 kts | 91° |
| 2026-05-03 22:42 | 52.63085 | -154.80017 | 38877 ft | 501 kts | 91° |
| 2026-05-03 22:43 | 52.64182 | -154.68749 | 38887 ft | 501 kts | 91° |
| 2026-05-03 22:43 | 52.65278 | -154.57395 | 38884 ft | 500 kts | 92° |
| 2026-05-03 22:44 | 52.66357 | -154.46083 | 38890 ft | 500 kts | 92° |
| 2026-05-03 22:44 | 52.67425 | -154.34751 | 38906 ft | 500 kts | 92° |
| 2026-05-03 22:45 | 52.68485 | -154.23393 | 38888 ft | 501 kts | 92° |
| 2026-05-03 22:45 | 52.69533 | -154.12053 | 38899 ft | 500 kts | 92° |
| 2026-05-03 22:46 | 52.70569 | -154.00703 | 38899 ft | 500 kts | 92° |
| 2026-05-03 22:46 | 52.71572 | -153.89609 | 38920 ft | 501 kts | 92° |
| 2026-05-03 22:47 | 52.72590 | -153.78212 | 38927 ft | 502 kts | 92° |
| 2026-05-03 22:47 | 52.73592 | -153.66879 | 38926 ft | 502 kts | 92° |
| 2026-05-03 22:48 | 52.74589 | -153.55472 | 38939 ft | 503 kts | 92° |
| 2026-05-03 22:48 | 52.75577 | -153.44049 | 38937 ft | 503 kts | 92° |
| 2026-05-03 22:49 | 52.76555 | -153.32590 | 38936 ft | 503 kts | 92° |
| 2026-05-03 22:49 | 52.77520 | -153.21158 | 38952 ft | 503 kts | 92° |
| 2026-05-03 22:50 | 52.78474 | -153.09719 | 38953 ft | 503 kts | 92° |
| 2026-05-03 22:50 | 52.79393 | -152.98576 | 38964 ft | 503 kts | 92° |
| 2026-05-03 22:51 | 52.80327 | -152.87101 | 38964 ft | 503 kts | 92° |
| 2026-05-03 22:51 | 52.81250 | -152.75634 | 38966 ft | 502 kts | 93° |
| 2026-05-03 22:52 | 52.82159 | -152.64199 | 38976 ft | 501 kts | 93° |
| 2026-05-03 22:52 | 52.83048 | -152.52852 | 38978 ft | 501 kts | 93° |
| 2026-05-03 22:53 | 52.83932 | -152.41433 | 38997 ft | 500 kts | 93° |
| 2026-05-03 22:53 | 52.84806 | -152.30001 | 39000 ft | 501 kts | 93° |
| 2026-05-03 22:54 | 52.85669 | -152.18561 | 38959 ft | 501 kts | 94° |
| 2026-05-03 22:54 | 52.86520 | -152.07150 | 39014 ft | 500 kts | 94° |
| 2026-05-03 22:55 | 52.87343 | -151.95963 | 39022 ft | 500 kts | 94° |
| 2026-05-03 22:55 | 52.88172 | -151.84530 | 39017 ft | 500 kts | 94° |
| 2026-05-03 22:56 | 52.88989 | -151.73097 | 39003 ft | 500 kts | 94° |
| 2026-05-03 22:56 | 52.89797 | -151.61644 | 39023 ft | 500 kts | 94° |
| 2026-05-03 22:57 | 52.90595 | -151.50187 | 39021 ft | 500 kts | 94° |
| 2026-05-03 22:57 | 52.91375 | -151.38810 | 39030 ft | 500 kts | 94° |
| 2026-05-03 22:58 | 52.92155 | -151.27266 | 39053 ft | 501 kts | 94° |
| 2026-05-03 22:58 | 52.92913 | -151.15876 | 39045 ft | 501 kts | 95° |
| 2026-05-03 22:59 | 52.93668 | -151.04370 | 39062 ft | 501 kts | 95° |
| 2026-05-03 22:59 | 52.94395 | -150.93147 | 39010 ft | 501 kts | 95° |
| 2026-05-03 23:00 | 52.95127 | -150.81652 | 39059 ft | 500 kts | 95° |
| 2026-05-03 23:00 | 52.95847 | -150.70160 | 39072 ft | 500 kts | 95° |
| 2026-05-03 23:01 | 52.96555 | -150.58681 | 39074 ft | 500 kts | 95° |
| 2026-05-03 23:01 | 52.97248 | -150.47270 | 39079 ft | 500 kts | 95° |
| 2026-05-03 23:02 | 52.97936 | -150.35760 | 39087 ft | 500 kts | 95° |
| 2026-05-03 23:02 | 52.98612 | -150.24255 | 39088 ft | 499 kts | 95° |
| 2026-05-03 23:03 | 52.99272 | -150.12836 | 39091 ft | 500 kts | 95° |
| 2026-05-03 23:03 | 52.99925 | -150.01358 | 39100 ft | 500 kts | 95° |
| 2026-05-03 23:04 | 53.00470 | -149.90116 | 39108 ft | 499 kts | 97° |
| 2026-05-03 23:04 | 53.00913 | -149.78592 | 39114 ft | 500 kts | 97° |
| 2026-05-03 23:05 | 53.01343 | -149.67068 | 39084 ft | 500 kts | 97° |
| 2026-05-03 23:05 | 53.01779 | -149.55598 | 39114 ft | 500 kts | 97° |
| 2026-05-03 23:06 | 53.02217 | -149.44042 | 39128 ft | 501 kts | 97° |
| 2026-05-03 23:06 | 53.02644 | -149.32486 | 39135 ft | 501 kts | 97° |
| 2026-05-03 23:07 | 53.03059 | -149.20929 | 39128 ft | 501 kts | 97° |
| 2026-05-03 23:07 | 53.03460 | -149.09450 | 39143 ft | 501 kts | 97° |
| 2026-05-03 23:08 | 53.03841 | -148.98191 | 39147 ft | 500 kts | 96° |
| 2026-05-03 23:08 | 53.04222 | -148.86629 | 39153 ft | 501 kts | 96° |
| 2026-05-03 23:09 | 53.04591 | -148.75063 | 39159 ft | 501 kts | 96° |
| 2026-05-03 23:09 | 53.04950 | -148.63476 | 39164 ft | 502 kts | 96° |
| 2026-05-03 23:10 | 53.05299 | -148.51891 | 39171 ft | 502 kts | 96° |
| 2026-05-03 23:10 | 53.05635 | -148.40298 | 39159 ft | 501 kts | 96° |
| 2026-05-03 23:11 | 53.05961 | -148.28726 | 39165 ft | 501 kts | 96° |
| 2026-05-03 23:11 | 53.06273 | -148.17220 | 39178 ft | 501 kts | 96° |
| 2026-05-03 23:12 | 53.06575 | -148.05633 | 39190 ft | 502 kts | 96° |
| 2026-05-03 23:12 | 53.06860 | -147.94302 | 39193 ft | 502 kts | 96° |
| 2026-05-03 23:13 | 53.07142 | -147.82677 | 39171 ft | 503 kts | 96° |
| 2026-05-03 23:13 | 53.07412 | -147.71071 | 39193 ft | 502 kts | 96° |
| 2026-05-03 23:14 | 53.07671 | -147.59447 | 39203 ft | 502 kts | 96° |
| 2026-05-03 23:14 | 53.07917 | -147.47838 | 39201 ft | 502 kts | 97° |
| 2026-05-03 23:15 | 53.08153 | -147.36245 | 39193 ft | 502 kts | 97° |
| 2026-05-03 23:15 | 53.08377 | -147.24626 | 39214 ft | 503 kts | 97° |
| 2026-05-03 23:16 | 53.08589 | -147.13064 | 39213 ft | 503 kts | 97° |
| 2026-05-03 23:16 | 53.08791 | -147.01418 | 39219 ft | 503 kts | 97° |
| 2026-05-03 23:17 | 53.08978 | -146.90056 | 39224 ft | 504 kts | 97° |
| 2026-05-03 23:17 | 53.09158 | -146.78393 | 39228 ft | 503 kts | 97° |
| 2026-05-03 23:18 | 53.09299 | -146.68719 | 39231 ft | 503 kts | 97° |
| 2026-05-03 23:18 | 53.09483 | -146.55171 | 39212 ft | 502 kts | 97° |
| 2026-05-03 23:19 | 53.09606 | -146.45437 | 39241 ft | 503 kts | 97° |
| 2026-05-03 23:19 | 53.09741 | -146.33777 | 39248 ft | 504 kts | 97° |
| 2026-05-03 23:20 | 53.09866 | -146.22114 | 39243 ft | 505 kts | 97° |
| 2026-05-03 23:20 | 53.09980 | -146.10431 | 39254 ft | 506 kts | 97° |
| 2026-05-03 23:21 | 53.10080 | -145.99097 | 39256 ft | 506 kts | 98° |
| 2026-05-03 23:21 | 53.10172 | -145.87397 | 39249 ft | 505 kts | 97° |
| 2026-05-03 23:22 | 53.10287 | -145.69839 | 39264 ft | 506 kts | 97° |
| 2026-05-03 23:22 | 53.10350 | -145.58135 | 39265 ft | 506 kts | 97° |
| 2026-05-03 23:23 | 53.10401 | -145.46418 | 39276 ft | 506 kts | 97° |
| 2026-05-03 23:23 | 53.10440 | -145.34683 | 39243 ft | 507 kts | 97° |
| 2026-05-03 23:24 | 53.10469 | -145.22971 | 39268 ft | 507 kts | 97° |
| 2026-05-03 23:24 | 53.10486 | -145.11225 | 39288 ft | 507 kts | 97° |
| 2026-05-03 23:25 | 53.10491 | -144.99661 | 39290 ft | 507 kts | 97° |
| 2026-05-03 23:25 | 53.10486 | -144.88111 | 39287 ft | 507 kts | 97° |
| 2026-05-03 23:26 | 53.10468 | -144.76370 | 39286 ft | 507 kts | 97° |
| 2026-05-03 23:26 | 53.10439 | -144.64636 | 39292 ft | 506 kts | 97° |
| 2026-05-03 23:27 | 53.10398 | -144.52909 | 39297 ft | 507 kts | 97° |
| 2026-05-03 23:27 | 53.10346 | -144.41160 | 39307 ft | 507 kts | 97° |
| 2026-05-03 23:28 | 53.10282 | -144.29403 | 39307 ft | 508 kts | 97° |
| 2026-05-03 23:28 | 53.10207 | -144.17704 | 39302 ft | 508 kts | 97° |
| 2026-05-03 23:29 | 53.10121 | -144.05932 | 39298 ft | 508 kts | 97° |
| 2026-05-03 23:29 | 53.10025 | -143.94460 | 39304 ft | 508 kts | 97° |
| 2026-05-03 23:30 | 53.09915 | -143.82714 | 39310 ft | 508 kts | 97° |
| 2026-05-03 23:30 | 53.09793 | -143.70954 | 39327 ft | 508 kts | 97° |
| 2026-05-03 23:31 | 53.09660 | -143.59205 | 39330 ft | 509 kts | 97° |
| 2026-05-03 23:31 | 53.09515 | -143.47418 | 39306 ft | 509 kts | 97° |
| 2026-05-03 23:32 | 53.09359 | -143.35646 | 39326 ft | 509 kts | 97° |
| 2026-05-03 23:32 | 53.09192 | -143.23954 | 39327 ft | 509 kts | 97° |
| 2026-05-03 23:33 | 53.09012 | -143.12177 | 39329 ft | 509 kts | 97° |
| 2026-05-03 23:33 | 53.08821 | -143.00397 | 39334 ft | 509 kts | 97° |
| 2026-05-03 23:34 | 53.08623 | -142.88903 | 39326 ft | 509 kts | 97° |
| 2026-05-03 23:34 | 53.08408 | -142.77115 | 39327 ft | 509 kts | 97° |
| 2026-05-03 23:35 | 53.08182 | -142.65321 | 39336 ft | 510 kts | 97° |
| 2026-05-03 23:35 | 53.07945 | -142.53579 | 39336 ft | 510 kts | 97° |
| 2026-05-03 23:36 | 53.07695 | -142.41771 | 39338 ft | 511 kts | 97° |
| 2026-05-03 23:36 | 53.07434 | -142.29956 | 39342 ft | 511 kts | 97° |
| 2026-05-03 23:37 | 53.07161 | -142.18132 | 39331 ft | 510 kts | 97° |
| 2026-05-03 23:37 | 53.06876 | -142.06336 | 39343 ft | 510 kts | 97° |
| 2026-05-03 23:38 | 53.06587 | -141.94825 | 39346 ft | 510 kts | 97° |
| 2026-05-03 23:38 | 53.06279 | -141.83044 | 39347 ft | 510 kts | 97° |
| 2026-05-03 23:39 | 53.05962 | -141.71335 | 39348 ft | 510 kts | 97° |
| 2026-05-03 23:39 | 53.05631 | -141.59578 | 39326 ft | 509 kts | 97° |
| 2026-05-03 23:40 | 53.05290 | -141.47818 | 39345 ft | 509 kts | 97° |
| 2026-05-03 23:40 | 53.04937 | -141.36066 | 39349 ft | 509 kts | 97° |
| 2026-05-03 23:41 | 53.04572 | -141.24334 | 39348 ft | 509 kts | 97° |
| 2026-05-03 23:41 | 53.04195 | -141.12579 | 39348 ft | 510 kts | 97° |
| 2026-05-03 23:42 | 53.03806 | -141.00813 | 39353 ft | 511 kts | 97° |
| 2026-05-03 23:42 | 53.03417 | -140.89349 | 39351 ft | 511 kts | 97° |
| 2026-05-03 23:43 | 53.03003 | -140.77531 | 39353 ft | 512 kts | 97° |
| 2026-05-03 23:43 | 53.02578 | -140.65716 | 39354 ft | 512 kts | 97° |
| 2026-05-03 23:44 | 53.02141 | -140.53903 | 39356 ft | 512 kts | 98° |
| 2026-05-03 23:44 | 53.01696 | -140.42169 | 39355 ft | 512 kts | 98° |
| 2026-05-03 23:45 | 53.01236 | -140.30377 | 39350 ft | 511 kts | 97° |
| 2026-05-03 23:45 | 53.00767 | -140.18596 | 39359 ft | 511 kts | 97° |
| 2026-05-03 23:46 | 53.00284 | -140.06811 | 39361 ft | 511 kts | 98° |
| 2026-05-03 23:46 | 52.99162 | -139.95485 | 39366 ft | 505 kts | 109° |
| 2026-05-03 23:47 | 52.97021 | -139.84440 | 39366 ft | 502 kts | 113° |
| 2026-05-03 23:47 | 52.94771 | -139.73452 | 39351 ft | 502 kts | 113° |
| 2026-05-03 23:48 | 52.92540 | -139.62451 | 39361 ft | 503 kts | 112° |
| 2026-05-03 23:48 | 52.90342 | -139.51526 | 39362 ft | 503 kts | 112° |
| 2026-05-03 23:49 | 52.88125 | -139.40523 | 39362 ft | 503 kts | 112° |
| 2026-05-03 23:49 | 52.85897 | -139.29529 | 39352 ft | 503 kts | 112° |
| 2026-05-03 23:50 | 52.84037 | -139.20404 | 39363 ft | 503 kts | 112° |
| 2026-05-03 23:50 | 52.81412 | -139.07610 | 39371 ft | 503 kts | 112° |
| 2026-05-03 23:51 | 52.79198 | -138.96883 | 39374 ft | 504 kts | 112° |
| 2026-05-03 23:51 | 52.76938 | -138.85988 | 39358 ft | 505 kts | 112° |
| 2026-05-03 23:52 | 52.74651 | -138.75025 | 39364 ft | 505 kts | 112° |
| 2026-05-03 23:52 | 52.72354 | -138.64072 | 39368 ft | 506 kts | 112° |
| 2026-05-03 23:53 | 52.70041 | -138.53106 | 39369 ft | 506 kts | 112° |
| 2026-05-03 23:53 | 52.67717 | -138.42143 | 39369 ft | 506 kts | 112° |
| 2026-05-03 23:54 | 52.65385 | -138.31208 | 39359 ft | 505 kts | 112° |
| 2026-05-03 23:54 | 52.63050 | -138.20312 | 39363 ft | 504 kts | 112° |
| 2026-05-03 23:55 | 52.60708 | -138.09437 | 39367 ft | 504 kts | 112° |
| 2026-05-03 23:55 | 52.58405 | -137.98805 | 39366 ft | 504 kts | 112° |
| 2026-05-03 23:56 | 52.56054 | -137.88010 | 39349 ft | 504 kts | 112° |
| 2026-05-03 23:56 | 52.53684 | -137.77185 | 39359 ft | 503 kts | 112° |
| 2026-05-03 23:57 | 52.51305 | -137.66369 | 39366 ft | 504 kts | 112° |
| 2026-05-03 23:57 | 52.48911 | -137.55545 | 39362 ft | 504 kts | 112° |
| 2026-05-03 23:58 | 52.46505 | -137.44724 | 39363 ft | 506 kts | 112° |
| 2026-05-03 23:58 | 52.44079 | -137.33875 | 39362 ft | 506 kts | 111° |
| 2026-05-03 23:59 | 52.41657 | -137.23089 | 39360 ft | 507 kts | 111° |
| 2026-05-03 23:59 | 52.39212 | -137.12259 | 39359 ft | 507 kts | 112° |
| 2026-05-04 00:00 | 52.36751 | -137.01415 | 39358 ft | 507 kts | 112° |
| 2026-05-04 00:00 | 52.34339 | -136.90847 | 39345 ft | 507 kts | 111° |
| 2026-05-04 00:01 | 52.31866 | -136.80057 | 39344 ft | 506 kts | 111° |
| 2026-05-04 00:01 | 52.29389 | -136.69309 | 39345 ft | 505 kts | 111° |
| 2026-05-04 00:02 | 52.26906 | -136.58590 | 39347 ft | 504 kts | 111° |
| 2026-05-04 00:02 | 52.24428 | -136.47944 | 39342 ft | 504 kts | 112° |
| 2026-05-04 00:03 | 52.21929 | -136.37264 | 39347 ft | 503 kts | 111° |
| 2026-05-04 00:03 | 52.19419 | -136.26586 | 39344 ft | 503 kts | 111° |
| 2026-05-04 00:04 | 52.17331 | -136.17743 | 39346 ft | 503 kts | 111° |
| 2026-05-04 00:04 | 52.14808 | -136.07109 | 39342 ft | 504 kts | 111° |
| 2026-05-04 00:05 | 52.12335 | -135.96735 | 39345 ft | 504 kts | 111° |
| 2026-05-04 00:05 | 52.09782 | -135.86074 | 39332 ft | 505 kts | 111° |
| 2026-05-04 00:06 | 52.07223 | -135.75443 | 39330 ft | 506 kts | 111° |
| 2026-05-04 00:06 | 52.04645 | -135.64782 | 39329 ft | 506 kts | 112° |
| 2026-05-04 00:07 | 52.02060 | -135.54141 | 39315 ft | 506 kts | 111° |
| 2026-05-04 00:07 | 51.99724 | -135.43499 | 39322 ft | 504 kts | 104° |
| 2026-05-04 00:08 | 51.98329 | -135.32371 | 39330 ft | 502 kts | 99° |
| 2026-05-04 00:08 | 51.97072 | -135.21235 | 39314 ft | 502 kts | 99° |
| 2026-05-04 00:09 | 51.95780 | -135.10107 | 39308 ft | 501 kts | 100° |
| 2026-05-04 00:09 | 51.94479 | -134.99235 | 39299 ft | 501 kts | 99° |
| 2026-05-04 00:10 | 51.93135 | -134.88177 | 39304 ft | 500 kts | 99° |
| 2026-05-04 00:10 | 51.91780 | -134.77127 | 39298 ft | 500 kts | 99° |
| 2026-05-04 00:11 | 51.90418 | -134.66096 | 39295 ft | 499 kts | 99° |
| 2026-05-04 00:11 | 51.89060 | -134.55170 | 39302 ft | 499 kts | 100° |
| 2026-05-04 00:12 | 51.87678 | -134.44146 | 39297 ft | 499 kts | 99° |
| 2026-05-04 00:12 | 51.86288 | -134.33149 | 39283 ft | 498 kts | 99° |
| 2026-05-04 00:13 | 51.84891 | -134.22182 | 39274 ft | 497 kts | 99° |
| 2026-05-04 00:13 | 51.83486 | -134.11241 | 39272 ft | 497 kts | 99° |
| 2026-05-04 00:14 | 51.82070 | -134.00301 | 39269 ft | 497 kts | 99° |
| 2026-05-04 00:14 | 51.80673 | -133.89589 | 39267 ft | 497 kts | 99° |
| 2026-05-04 00:15 | 51.79236 | -133.78660 | 39259 ft | 497 kts | 99° |
| 2026-05-04 00:15 | 51.77790 | -133.67738 | 39254 ft | 496 kts | 99° |
| 2026-05-04 00:16 | 51.76337 | -133.56842 | 39244 ft | 496 kts | 99° |
| 2026-05-04 00:16 | 51.74883 | -133.46030 | 39240 ft | 496 kts | 99° |
| 2026-05-04 00:17 | 51.73410 | -133.35158 | 39244 ft | 496 kts | 99° |
| 2026-05-04 00:17 | 51.71927 | -133.24289 | 39228 ft | 495 kts | 99° |
| 2026-05-04 00:18 | 51.70436 | -133.13445 | 39230 ft | 495 kts | 99° |
| 2026-05-04 00:18 | 51.68935 | -133.02612 | 39222 ft | 495 kts | 99° |
| 2026-05-04 00:19 | 51.67458 | -132.92019 | 39202 ft | 495 kts | 99° |
| 2026-05-04 00:19 | 51.65949 | -132.81272 | 39204 ft | 495 kts | 99° |
| 2026-05-04 00:20 | 51.64420 | -132.70474 | 39198 ft | 494 kts | 99° |
| 2026-05-04 00:20 | 51.62887 | -132.59716 | 39189 ft | 493 kts | 99° |
| 2026-05-04 00:21 | 51.61344 | -132.48964 | 39187 ft | 492 kts | 99° |
| 2026-05-04 00:21 | 51.59794 | -132.38237 | 39184 ft | 492 kts | 99° |
| 2026-05-04 00:22 | 51.58232 | -132.27504 | 39176 ft | 492 kts | 99° |
| 2026-05-04 00:22 | 51.56662 | -132.16787 | 39183 ft | 496 kts | 99° |
| 2026-05-04 00:23 | 51.55056 | -132.05881 | 39178 ft | 505 kts | 99° |
| 2026-05-04 00:23 | 51.53472 | -131.95225 | 39171 ft | 506 kts | 99° |
| 2026-05-04 00:24 | 51.51828 | -131.84249 | 39160 ft | 505 kts | 100° |
| 2026-05-04 00:24 | 51.50176 | -131.73294 | 39160 ft | 504 kts | 100° |
| 2026-05-04 00:25 | 51.48522 | -131.62395 | 39154 ft | 501 kts | 100° |
| 2026-05-04 00:25 | 51.46865 | -131.51553 | 39147 ft | 499 kts | 100° |
| 2026-05-04 00:26 | 51.45210 | -131.40781 | 39145 ft | 497 kts | 100° |
| 2026-05-04 00:26 | 51.43545 | -131.30025 | 39147 ft | 496 kts | 100° |
| 2026-05-04 00:27 | 51.41873 | -131.19292 | 39146 ft | 496 kts | 100° |
| 2026-05-04 00:27 | 51.40201 | -131.08634 | 39139 ft | 496 kts | 100° |
| 2026-05-04 00:28 | 51.38551 | -130.98177 | 39135 ft | 495 kts | 100° |
| 2026-05-04 00:28 | 51.36849 | -130.87464 | 39137 ft | 496 kts | 100° |
| 2026-05-04 00:29 | 51.35142 | -130.76783 | 39124 ft | 496 kts | 100° |
| 2026-05-04 00:29 | 51.33430 | -130.66144 | 39125 ft | 496 kts | 101° |
| 2026-05-04 00:30 | 51.31699 | -130.55460 | 39123 ft | 497 kts | 101° |
| 2026-05-04 00:30 | 51.29955 | -130.44760 | 39131 ft | 497 kts | 100° |
| 2026-05-04 00:31 | 51.28200 | -130.34060 | 39117 ft | 498 kts | 101° |
| 2026-05-04 00:31 | 51.26432 | -130.23346 | 39108 ft | 499 kts | 101° |
| 2026-05-04 00:32 | 51.24653 | -130.12639 | 39099 ft | 499 kts | 101° |
| 2026-05-04 00:32 | 51.22864 | -130.01941 | 39095 ft | 498 kts | 101° |
| 2026-05-04 00:33 | 51.20214 | -129.86210 | 39084 ft | 496 kts | 101° |
| 2026-05-04 00:34 | 51.18412 | -129.75591 | 39075 ft | 495 kts | 101° |
| 2026-05-04 00:34 | 51.16618 | -129.65084 | 39069 ft | 495 kts | 101° |
| 2026-05-04 00:35 | 51.14792 | -129.54457 | 39086 ft | 494 kts | 101° |
| 2026-05-04 00:35 | 51.12981 | -129.43976 | 39078 ft | 494 kts | 101° |
| 2026-05-04 00:36 | 51.11143 | -129.33399 | 39073 ft | 494 kts | 101° |
| 2026-05-04 00:36 | 51.09299 | -129.22855 | 39052 ft | 494 kts | 101° |
| 2026-05-04 00:37 | 51.07447 | -129.12329 | 39052 ft | 495 kts | 101° |
| 2026-05-04 00:37 | 51.05584 | -129.01807 | 39044 ft | 494 kts | 101° |
| 2026-05-04 00:38 | 51.03757 | -128.91541 | 39050 ft | 493 kts | 101° |
| 2026-05-04 00:38 | 51.01881 | -128.81064 | 39044 ft | 493 kts | 101° |
| 2026-05-04 00:39 | 50.99999 | -128.70613 | 39058 ft | 492 kts | 101° |
| 2026-05-04 00:39 | 50.98107 | -128.60166 | 39044 ft | 493 kts | 101° |
| 2026-05-04 00:40 | 50.96219 | -128.49801 | 39046 ft | 492 kts | 101° |
| 2026-05-04 00:40 | 50.94310 | -128.39369 | 39040 ft | 492 kts | 101° |
| 2026-05-04 00:41 | 50.92391 | -128.28903 | 39045 ft | 497 kts | 101° |
| 2026-05-04 00:41 | 50.90433 | -128.18331 | 39047 ft | 503 kts | 101° |
| 2026-05-04 00:42 | 50.88433 | -128.07610 | 39045 ft | 510 kts | 101° |
| 2026-05-04 00:42 | 50.86456 | -127.97081 | 39042 ft | 512 kts | 101° |
| 2026-05-04 00:43 | 50.84416 | -127.86276 | 39052 ft | 512 kts | 101° |
| 2026-05-04 00:43 | 50.82365 | -127.75458 | 39031 ft | 513 kts | 101° |
| 2026-05-04 00:44 | 50.80320 | -127.64735 | 39042 ft | 512 kts | 101° |
| 2026-05-04 00:44 | 50.78252 | -127.53947 | 39043 ft | 511 kts | 101° |
| 2026-05-04 00:45 | 50.76182 | -127.43222 | 39032 ft | 509 kts | 101° |
| 2026-05-04 00:45 | 50.74116 | -127.32568 | 39034 ft | 507 kts | 101° |
| 2026-05-04 00:46 | 50.72043 | -127.21937 | 39034 ft | 506 kts | 101° |
| 2026-05-04 00:46 | 50.69963 | -127.11324 | 39039 ft | 506 kts | 101° |
| 2026-05-04 00:47 | 50.67875 | -127.00732 | 39052 ft | 506 kts | 101° |
| 2026-05-04 00:47 | 50.65833 | -126.90433 | 39038 ft | 505 kts | 101° |
| 2026-05-04 00:48 | 50.63727 | -126.79865 | 39024 ft | 505 kts | 101° |
| 2026-05-04 00:48 | 50.61611 | -126.69307 | 39029 ft | 505 kts | 101° |
| 2026-05-04 00:49 | 50.59485 | -126.58751 | 39022 ft | 505 kts | 101° |
| 2026-05-04 00:49 | 50.57710 | -126.49986 | 39030 ft | 505 kts | 101° |
| 2026-05-04 00:50 | 50.55569 | -126.39471 | 39015 ft | 504 kts | 101° |
| 2026-05-04 00:50 | 50.53422 | -126.28978 | 39001 ft | 503 kts | 102° |
| 2026-05-04 00:51 | 50.51275 | -126.18529 | 39006 ft | 503 kts | 101° |
| 2026-05-04 00:51 | 50.49109 | -126.08054 | 38994 ft | 505 kts | 102° |
| 2026-05-04 00:52 | 50.46980 | -125.97800 | 38990 ft | 505 kts | 101° |
| 2026-05-04 00:52 | 50.44795 | -125.87340 | 38988 ft | 504 kts | 102° |
| 2026-05-04 00:53 | 50.42605 | -125.76910 | 38973 ft | 504 kts | 102° |
| 2026-05-04 00:53 | 50.40403 | -125.66479 | 38968 ft | 503 kts | 102° |
| 2026-05-04 00:54 | 50.38194 | -125.56065 | 38960 ft | 503 kts | 102° |
| 2026-05-04 00:54 | 50.35990 | -125.45727 | 38958 ft | 503 kts | 102° |
| 2026-05-04 00:55 | 50.33763 | -125.35336 | 38958 ft | 503 kts | 102° |
| 2026-05-04 00:55 | 50.31525 | -125.24931 | 38918 ft | 504 kts | 102° |
| 2026-05-04 00:56 | 50.29277 | -125.14563 | 38939 ft | 503 kts | 102° |
| 2026-05-04 00:56 | 50.27024 | -125.04200 | 38955 ft | 504 kts | 102° |
| 2026-05-04 00:57 | 50.24801 | -124.94028 | 38952 ft | 505 kts | 102° |
| 2026-05-04 00:57 | 50.22531 | -124.83710 | 38929 ft | 506 kts | 102° |
| 2026-05-04 00:58 | 50.20242 | -124.73321 | 38942 ft | 504 kts | 102° |
| 2026-05-04 00:58 | 50.19163 | -124.68164 | 38667 ft | 497 kts | 101° |
| 2026-05-04 00:58 | 50.18144 | -124.63048 | 38014 ft | 489 kts | 100° |
| 2026-05-04 00:58 | 50.17165 | -124.57983 | 37234 ft | 486 kts | 99° |
| 2026-05-04 00:59 | 50.16193 | -124.52957 | 36421 ft | 485 kts | 100° |
| 2026-05-04 00:59 | 50.15207 | -124.47906 | 35504 ft | 487 kts | 101° |
| 2026-05-04 00:59 | 50.14204 | -124.42832 | 34531 ft | 490 kts | 101° |
| 2026-05-04 00:59 | 50.13184 | -124.37733 | 33448 ft | 495 kts | 102° |
| 2026-05-04 01:00 | 50.12152 | -124.32605 | 32239 ft | 497 kts | 102° |
| 2026-05-04 01:00 | 50.11108 | -124.27456 | 31070 ft | 498 kts | 103° |
| 2026-05-04 01:00 | 50.10057 | -124.22279 | 29961 ft | 500 kts | 103° |
| 2026-05-04 01:00 | 50.09024 | -124.17198 | 29121 ft | 494 kts | 103° |
| 2026-05-04 01:01 | 50.07991 | -124.12144 | 28491 ft | 485 kts | 103° |
| 2026-05-04 01:01 | 50.06977 | -124.07174 | 27716 ft | 480 kts | 103° |
| 2026-05-04 01:01 | 50.05974 | -124.02251 | 26899 ft | 475 kts | 104° |
| 2026-05-04 01:01 | 50.05006 | -123.97628 | 26242 ft | 466 kts | 107° |
| 2026-05-04 01:02 | 50.03498 | -123.93140 | 25398 ft | 472 kts | 123° |
| 2026-05-04 01:02 | 50.01272 | -123.89383 | 24641 ft | 474 kts | 137° |
| 2026-05-04 01:02 | 49.98554 | -123.86568 | 24012 ft | 468 kts | 151° |
| 2026-05-04 01:02 | 49.95644 | -123.84309 | 23251 ft | 466 kts | 152° |
| 2026-05-04 01:03 | 49.92747 | -123.82088 | 22438 ft | 462 kts | 152° |
| 2026-05-04 01:03 | 49.89888 | -123.79857 | 21764 ft | 457 kts | 152° |
| 2026-05-04 01:03 | 49.87108 | -123.77641 | 21163 ft | 451 kts | 151° |
| 2026-05-04 01:03 | 49.84350 | -123.75425 | 20569 ft | 444 kts | 151° |
| 2026-05-04 01:04 | 49.81622 | -123.73215 | 19839 ft | 441 kts | 151° |
| 2026-05-04 01:04 | 49.78910 | -123.71033 | 19240 ft | 436 kts | 152° |
| 2026-05-04 01:04 | 49.76219 | -123.68890 | 18672 ft | 432 kts | 152° |
| 2026-05-04 01:04 | 49.73559 | -123.66765 | 18096 ft | 428 kts | 152° |
| 2026-05-04 01:05 | 49.70926 | -123.64664 | 17366 ft | 424 kts | 152° |
| 2026-05-04 01:05 | 49.68317 | -123.62577 | 16755 ft | 419 kts | 152° |
| 2026-05-04 01:05 | 49.65747 | -123.60529 | 16187 ft | 412 kts | 152° |
| 2026-05-04 01:05 | 49.63221 | -123.58516 | 15772 ft | 403 kts | 152° |
| 2026-05-04 01:06 | 49.60785 | -123.56580 | 15687 ft | 387 kts | 152° |
| 2026-05-04 01:06 | 49.58465 | -123.54742 | 15559 ft | 370 kts | 152° |
| 2026-05-04 01:06 | 49.56221 | -123.52967 | 15442 ft | 355 kts | 152° |
| 2026-05-04 01:06 | 49.54076 | -123.51255 | 15357 ft | 341 kts | 151° |
| 2026-05-04 01:07 | 49.51998 | -123.49601 | 15207 ft | 331 kts | 151° |
| 2026-05-04 01:07 | 49.49981 | -123.47960 | 14956 ft | 326 kts | 150° |
| 2026-05-04 01:07 | 49.47988 | -123.46317 | 14652 ft | 323 kts | 150° |
| 2026-05-04 01:07 | 49.46018 | -123.44694 | 14315 ft | 321 kts | 150° |
| 2026-05-04 01:08 | 49.44053 | -123.43077 | 13983 ft | 319 kts | 150° |
| 2026-05-04 01:08 | 49.42100 | -123.41474 | 13648 ft | 317 kts | 150° |
| 2026-05-04 01:08 | 49.40158 | -123.39883 | 13289 ft | 315 kts | 150° |
| 2026-05-04 01:08 | 49.38230 | -123.38304 | 12934 ft | 313 kts | 150° |
| 2026-05-04 01:09 | 49.36310 | -123.36735 | 12571 ft | 311 kts | 150° |
| 2026-05-04 01:09 | 49.34403 | -123.35176 | 12230 ft | 309 kts | 150° |
| 2026-05-04 01:09 | 49.32539 | -123.33655 | 11870 ft | 308 kts | 150° |
| 2026-05-04 01:09 | 49.30666 | -123.32093 | 11492 ft | 302 kts | 145° |
| 2026-05-04 01:10 | 49.29211 | -123.29856 | 11105 ft | 294 kts | 118° |
| 2026-05-04 01:10 | 49.28466 | -123.27015 | 10894 ft | 284 kts | 100° |
| 2026-05-04 01:10 | 49.28107 | -123.24081 | 10647 ft | 278 kts | 97° |
| 2026-05-04 01:10 | 49.27770 | -123.21167 | 10358 ft | 276 kts | 98° |
| 2026-05-04 01:11 | 49.27427 | -123.18277 | 10051 ft | 275 kts | 98° |
| 2026-05-04 01:11 | 49.27082 | -123.15399 | 9734 ft | 274 kts | 98° |
| 2026-05-04 01:11 | 49.26732 | -123.12539 | 9409 ft | 273 kts | 98° |
| 2026-05-04 01:11 | 49.26381 | -123.09682 | 9080 ft | 272 kts | 99° |
| 2026-05-04 01:12 | 49.26030 | -123.06842 | 8755 ft | 271 kts | 99° |
| 2026-05-04 01:12 | 49.25679 | -123.04019 | 8438 ft | 269 kts | 99° |
| 2026-05-04 01:12 | 49.25329 | -123.01213 | 8136 ft | 268 kts | 99° |
| 2026-05-04 01:12 | 49.24999 | -122.98574 | 7830 ft | 267 kts | 99° |
| 2026-05-04 01:13 | 49.24651 | -122.95788 | 7511 ft | 266 kts | 99° |
| 2026-05-04 01:13 | 49.24302 | -122.93000 | 7175 ft | 267 kts | 99° |
| 2026-05-04 01:13 | 49.23953 | -122.90212 | 6895 ft | 265 kts | 99° |
| 2026-05-04 01:13 | 49.23607 | -122.87454 | 6656 ft | 261 kts | 99° |
| 2026-05-04 01:14 | 49.23271 | -122.84790 | 6582 ft | 250 kts | 99° |
| 2026-05-04 01:14 | 49.22948 | -122.82232 | 6481 ft | 241 kts | 99° |
| 2026-05-04 01:14 | 49.22635 | -122.79767 | 6313 ft | 234 kts | 99° |
| 2026-05-04 01:14 | 49.22219 | -122.77395 | 5972 ft | 231 kts | 117° |
| 2026-05-04 01:15 | 49.21099 | -122.75640 | 5578 ft | 234 kts | 151° |
| 2026-05-04 01:15 | 49.19537 | -122.75034 | 5280 ft | 233 kts | 182° |
| 2026-05-04 01:15 | 49.18011 | -122.75661 | 4980 ft | 232 kts | 211° |
| 2026-05-04 01:15 | 49.16848 | -122.77316 | 4699 ft | 228 kts | 238° |
| 2026-05-04 01:16 | 49.16225 | -122.79504 | 4354 ft | 225 kts | 261° |
| 2026-05-04 01:16 | 49.16219 | -122.81871 | 3989 ft | 223 kts | 275° |
| 2026-05-04 01:16 | 49.16393 | -122.84225 | 3718 ft | 221 kts | 279° |
| 2026-05-04 01:16 | 49.16636 | -122.86510 | 3544 ft | 215 kts | 280° |
| 2026-05-04 01:17 | 49.16890 | -122.88706 | 3440 ft | 202 kts | 281° |
| 2026-05-04 01:17 | 49.17132 | -122.90794 | 3193 ft | 197 kts | 280° |
| 2026-05-04 01:17 | 49.17370 | -122.92840 | 2930 ft | 193 kts | 280° |
| 2026-05-04 01:17 | 49.17600 | -122.94822 | 2696 ft | 187 kts | 280° |
| 2026-05-04 01:18 | 49.17822 | -122.96753 | 2453 ft | 180 kts | 281° |
| 2026-05-04 01:18 | 49.18034 | -122.98580 | 2252 ft | 170 kts | 281° |
| 2026-05-04 01:18 | 49.18244 | -123.00387 | 2031 ft | 174 kts | 280° |
| 2026-05-04 01:18 | 49.18451 | -123.02195 | 1784 ft | 170 kts | 280° |
| 2026-05-04 01:19 | 49.18654 | -123.03944 | 1566 ft | 168 kts | 280° |
| 2026-05-04 01:19 | 49.18860 | -123.05719 | 1371 ft | 168 kts | 280° |
| 2026-05-04 01:19 | 49.19059 | -123.07449 | 1153 ft | 167 kts | 278° |
| 2026-05-04 01:19 | 49.19254 | -123.09142 | 899 ft | 149 kts | 280° |
| 2026-05-04 01:20 | 49.19421 | -123.10577 | 690 ft | 124 kts | 280° |
| 2026-05-04 01:20 | 49.19559 | -123.11768 | 486 ft | 111 kts | 282° |
| 2026-05-04 01:20 | 49.19702 | -123.12964 | 397 ft | 120 kts | 283° |
| 2026-05-04 01:20 | 49.19856 | -123.14245 | 292 ft | 118 kts | 282° |
| 2026-05-04 01:21 | 49.19994 | -123.15457 | 122 ft | 113 kts | 281° |
| 2026-05-04 01:21 | 49.20117 | -123.16594 | 28 ft | 106 kts | 282° |
| 2026-05-04 01:21 | 49.20229 | -123.17543 | 20 ft | 70 kts | 280° |
| 2026-05-04 01:21 | 49.20287 | -123.18045 | 24 ft | 26 kts | 281° |
| 2026-05-04 01:22 | 49.20300 | -123.18156 | 26 ft | 6 kts | 278° |
| 2026-05-04 01:22 | 49.20306 | -123.18219 | 25 ft | 6 kts | 278° |
| 2026-05-04 01:22 | 49.20309 | -123.18291 | 24 ft | 7 kts | 272° |
| 2026-05-04 01:22 | 49.20308 | -123.18373 | 24 ft | 8 kts | 267° |
| 2026-05-04 01:23 | 49.20299 | -123.18464 | 25 ft | 9 kts | 257° |
| 2026-05-04 01:23 | 49.20283 | -123.18547 | 27 ft | 8 kts | 252° |
| 2026-05-04 01:23 | 49.20264 | -123.18639 | 26 ft | 10 kts | 250° |
| 2026-05-04 01:23 | 49.20237 | -123.18743 | 24 ft | 10 kts | 249° |
| 2026-05-04 01:24 | 49.20209 | -123.18854 | 24 ft | 12 kts | 249° |
| 2026-05-04 01:24 | 49.20183 | -123.18962 | 25 ft | 9 kts | 250° |
| 2026-05-04 01:24 | 49.20150 | -123.19013 | 27 ft | 7 kts | 208° |
| 2026-05-04 01:24 | 49.20098 | -123.19039 | 24 ft | 9 kts | 197° |
| 2026-05-04 01:25 | 49.20030 | -123.19060 | 22 ft | 11 kts | 186° |
| 2026-05-04 01:25 | 49.19972 | -123.19020 | 26 ft | 11 kts | 98° |
| 2026-05-04 01:25 | 49.19963 | -123.18900 | 24 ft | 12 kts | 97° |
| 2026-05-04 01:25 | 49.19946 | -123.18792 | 25 ft | 7 kts | 100° |
| 2026-05-04 01:26 | 49.19936 | -123.18707 | 22 ft | 9 kts | 100° |
| 2026-05-04 01:26 | 49.19923 | -123.18601 | 25 ft | 11 kts | 101° |
| 2026-05-04 01:26 | 49.19943 | -123.18545 | 22 ft | 6 kts | 7° |
| 2026-05-04 01:26 | 49.19990 | -123.18532 | 26 ft | 8 kts | 13° |
| 2026-05-04 01:27 | 49.20041 | -123.18497 | 26 ft | 9 kts | 48° |
| 2026-05-04 01:27 | 49.20040 | -123.18398 | 25 ft | 10 kts | 99° |
| 2026-05-04 01:27 | 49.20026 | -123.18288 | 26 ft | 11 kts | 101° |
| 2026-05-04 01:27 | 49.20012 | -123.18165 | 26 ft | 12 kts | 99° |
| 2026-05-04 01:28 | 49.20001 | -123.18071 | 24 ft | 8 kts | 100° |
| 2026-05-04 01:28 | 49.19982 | -123.18033 | 24 ft | 5 kts | 153° |
| 2026-05-04 01:28 | 49.19941 | -123.18022 | 23 ft | 7 kts | 181° |
| 2026-05-04 01:28 | 49.19929 | -123.18023 | 22 ft | 2 kts | 181° |
| 2026-05-04 01:29 | 49.19925 | -123.18023 | 23 ft | 0 kts | 181° |